Time;durP1;ratioP1;P1;durP2;ratioP2;P2;SDS_P1;SDS_P2;PMS_P1;PMS_P2;Temp;Humidity;BMP_temperature;BMP_pressure;BME280_temperature;BME280_humidity;BME280_pressure;Samples;Min_cycle;Max_cycle;Signal;HPM_P1;HPM_P2
2023/03/13 00:00:57;;;;;;;54.00;28.20;;;3.30;99.50;;;;;;5055128;28;20197;-81
2023/03/13 00:03:23;;;;;;;46.25;25.85;;;3.30;99.60;;;;;;5070374;28;20201;-81
2023/03/13 00:05:48;;;;;;;38.40;25.20;;;3.40;99.60;;;;;;5053645;28;20182;-81
2023/03/13 00:08:14;;;;;;;42.83;25.10;;;3.30;99.60;;;;;;5070366;28;20200;-82
2023/03/13 00:10:41;;;;;;;43.05;27.83;;;3.30;99.70;;;;;;5054819;28;20678;-81
2023/03/13 00:13:07;;;;;;;48.88;26.83;;;3.30;99.90;;;;;;5070330;28;20732;-81
2023/03/13 00:15:33;;;;;;;54.15;31.60;;;3.40;99.90;;;;;;5070011;28;20240;-81
2023/03/13 00:17:59;;;;;;;52.70;28.00;;;3.40;99.80;;;;;;5055113;28;20622;-80
2023/03/13 00:20:24;;;;;;;49.27;30.40;;;3.30;99.80;;;;;;5054713;28;20174;-81
2023/03/13 00:22:50;;;;;;;48.97;26.37;;;3.30;99.90;;;;;;5055062;28;20210;-81
2023/03/13 00:25:16;;;;;;;44.40;27.03;;;3.20;99.90;;;;;;5053308;28;20182;-81
2023/03/13 00:27:41;;;;;;;47.93;25.53;;;3.20;99.90;;;;;;5054838;28;20224;-80
2023/03/13 00:30:08;;;;;;;41.60;26.00;;;3.30;99.90;;;;;;5053157;28;20220;-80
2023/03/13 00:32:39;;;;;;;41.08;24.23;;;3.40;99.90;;;;;;5054723;28;20193;-80
2023/03/13 00:35:04;;;;;;;41.70;26.50;;;3.60;99.90;;;;;;5054455;28;20166;-81
2023/03/13 00:37:31;;;;;;;42.90;25.73;;;3.70;99.90;;;;;;5053260;28;20704;-81
2023/03/13 00:39:56;;;;;;;42.17;26.35;;;3.80;99.90;;;;;;5054349;28;20414;-81
2023/03/13 00:42:22;;;;;;;43.80;26.53;;;3.70;99.80;;;;;;5054456;28;20519;-81
2023/03/13 00:44:47;;;;;;;43.20;25.30;;;3.70;99.90;;;;;;5052993;28;20182;-80
2023/03/13 00:47:13;;;;;;;46.67;29.20;;;3.80;99.90;;;;;;5069377;28;20546;-82
2023/03/13 00:49:39;;;;;;;40.03;24.27;;;3.70;99.80;;;;;;5054014;28;20239;-79
2023/03/13 00:52:05;;;;;;;46.20;26.33;;;3.70;99.90;;;;;;5054035;28;20602;-81
2023/03/13 00:54:30;;;;;;;48.25;25.88;;;3.60;99.90;;;;;;5069425;28;20647;-81
2023/03/13 00:56:56;;;;;;;44.73;25.93;;;3.60;99.90;;;;;;5052809;28;20290;-81
2023/03/13 00:59:22;;;;;;;41.23;25.07;;;3.60;99.90;;;;;;5054076;28;20182;-80
2023/03/13 01:01:47;;;;;;;45.60;27.00;;;3.80;99.90;;;;;;5054124;28;20177;-81
2023/03/13 01:04:13;;;;;;;46.60;26.03;;;3.80;99.90;;;;;;5054011;28;20189;-80
2023/03/13 01:06:41;;;;;;;44.90;27.30;;;3.80;99.90;;;;;;5053903;28;20528;-82
2023/03/13 01:09:10;;;;;;;40.42;24.27;;;3.90;99.90;;;;;;5069163;28;20565;-81
2023/03/13 01:11:38;;;;;;;46.00;25.95;;;4.00;99.90;;;;;;5053424;28;20498;-80
2023/03/13 01:14:07;;;;;;;46.33;25.30;;;4.00;99.90;;;;;;5053679;28;20233;-80
2023/03/13 01:16:34;;;;;;;42.47;26.73;;;3.90;99.90;;;;;;5053897;28;20256;-82
2023/03/13 01:19:03;;;;;;;47.10;25.08;;;3.80;99.90;;;;;;5069215;28;20650;-81
2023/03/13 01:21:29;;;;;;;45.72;26.08;;;3.70;99.90;;;;;;5053650;28;20173;-81
2023/03/13 01:23:55;;;;;;;42.20;24.90;;;3.60;99.90;;;;;;5054245;28;20696;-81
2023/03/13 01:26:21;;;;;;;43.00;26.23;;;3.80;99.90;;;;;;5053675;28;20178;-81
2023/03/13 01:28:47;;;;;;;49.00;27.97;;;3.80;99.90;;;;;;5053454;28;20599;-81
2023/03/13 01:31:28;;;;;;;44.73;26.13;;;3.70;99.90;;;;;;5053654;28;20794;-82
2023/03/13 01:33:57;;;;;;;43.22;24.83;;;3.70;99.90;;;;;;5068967;28;20694;-80
2023/03/13 01:36:23;;;;;;;48.58;26.58;;;3.60;99.90;;;;;;5053616;28;20181;-81
2023/03/13 01:38:51;;;;;;;40.75;25.98;;;3.40;99.90;;;;;;5068941;28;20682;-81
2023/03/13 01:41:18;;;;;;;44.42;26.23;;;3.40;99.90;;;;;;5053637;28;20182;-81
2023/03/13 01:43:44;;;;;;;39.38;24.85;;;3.40;99.90;;;;;;5053485;28;20621;-81
2023/03/13 01:46:24;;;;;;;41.72;24.67;;;3.30;99.90;;;;;;5052227;28;20528;-82
2023/03/13 01:49:04;;;;;;;43.42;27.83;;;3.30;99.90;;;;;;5068775;28;20556;-80
2023/03/13 01:51:37;;;;;;;41.33;23.65;;;3.20;99.90;;;;;;5068995;28;20268;-81
2023/03/13 01:54:43;;;;;;;38.72;23.05;;;3.20;99.90;;;;;;5068903;28;20216;-81
2023/03/13 01:57:29;;;;;;;41.50;24.42;;;3.30;99.90;;;;;;5068217;28;20275;-82
2023/03/13 02:00:06;;;;;;;39.92;27.13;;;3.30;99.90;;;;;;5053489;28;20559;-81
2023/03/13 02:02:34;;;;;;;42.38;25.40;;;3.30;99.90;;;;;;5053193;28;20193;-81
2023/03/13 02:05:02;;;;;;;40.05;25.02;;;3.30;99.90;;;;;;5053344;28;20182;-81
2023/03/13 02:07:42;;;;;;;41.85;25.67;;;3.50;99.90;;;;;;5053585;28;20284;-82
2023/03/13 02:10:09;;;;;;;43.80;24.00;;;3.80;99.90;;;;;;5051948;28;20216;-80
2023/03/13 02:12:38;;;;;;;38.13;24.15;;;3.80;99.90;;;;;;5053495;28;20194;-80
2023/03/13 02:15:12;;;;;;;44.38;26.92;;;3.90;99.90;;;;;;5053315;28;20241;-81
2023/03/13 02:17:39;;;;;;;41.97;25.05;;;3.90;99.90;;;;;;5053457;28;20201;-80
2023/03/13 02:20:06;;;;;;;42.35;25.40;;;4.00;99.90;;;;;;5053109;28;20166;-81
2023/03/13 02:22:48;;;;;;;45.38;26.52;;;4.00;99.90;;;;;;5071421;28;20208;-82
2023/03/13 02:25:23;;;;;;;41.67;24.80;;;3.90;99.90;;;;;;5072328;28;20178;-82
2023/03/13 02:28:05;;;;;;;45.00;25.42;;;3.90;99.90;;;;;;5057217;28;20200;-81
2023/03/13 02:30:32;;;;;;;43.15;25.60;;;3.90;99.90;;;;;;5072221;28;20219;-81
2023/03/13 02:33:00;;;;;;;39.38;23.63;;;3.90;99.90;;;;;;5057182;28;20197;-81
2023/03/13 02:35:26;;;;;;;42.90;24.52;;;3.80;99.90;;;;;;5056752;28;20181;-81
2023/03/13 02:37:59;;;;;;;40.10;24.10;;;3.80;99.90;;;;;;5071859;28;20270;-81
2023/03/13 02:40:28;;;;;;;43.65;23.83;;;3.80;99.90;;;;;;5072546;28;20585;-81
2023/03/13 02:42:57;;;;;;;41.95;25.80;;;3.80;99.90;;;;;;5057019;28;20637;-82
2023/03/13 02:45:23;;;;;;;44.92;26.80;;;3.70;99.90;;;;;;5056550;28;20189;-80
2023/03/13 02:47:49;;;;;;;38.17;24.97;;;3.60;99.90;;;;;;5055318;28;20197;-82
2023/03/13 02:50:15;;;;;;;45.13;26.87;;;3.50;99.90;;;;;;5056353;28;20688;-81
2023/03/13 02:52:48;;;;;;;42.13;25.02;;;3.50;99.90;;;;;;5056121;28;20190;-80
2023/03/13 02:55:24;;;;;;;42.35;25.20;;;3.40;99.90;;;;;;5056547;28;20632;-82
2023/03/13 02:57:50;;;;;;;45.25;27.42;;;3.20;99.90;;;;;;5071590;28;20204;-81
2023/03/13 03:00:17;;;;;;;40.83;25.30;;;3.10;99.90;;;;;;5055080;28;20182;-80
2023/03/13 03:02:43;;;;;;;46.80;28.00;;;3.10;99.90;;;;;;5071715;28;20577;-80
2023/03/13 03:05:10;;;;;;;51.50;26.77;;;3.10;99.90;;;;;;5056144;28;20669;-80
2023/03/13 03:07:37;;;;;;;45.40;26.42;;;3.10;99.90;;;;;;5056409;28;20194;-81
2023/03/13 03:10:03;;;;;;;39.90;25.50;;;3.10;99.90;;;;;;5055966;28;20283;-82
2023/03/13 03:12:29;;;;;;;48.08;30.90;;;3.10;99.90;;;;;;5071313;28;20194;-81
2023/03/13 03:14:55;;;;;;;48.63;28.77;;;3.00;99.90;;;;;;5054504;28;20229;-82
2023/03/13 03:17:20;;;;;;;42.97;26.93;;;3.00;99.90;;;;;;5071196;28;20292;-82
2023/03/13 03:19:46;;;;;;;45.37;26.00;;;3.00;99.90;;;;;;5071262;28;20174;-82
2023/03/13 03:22:12;;;;;;;40.33;24.70;;;3.00;99.90;;;;;;5071400;28;20605;-81
2023/03/13 03:24:37;;;;;;;45.17;25.43;;;3.00;99.90;;;;;;5055787;28;20174;-81
2023/03/13 03:27:03;;;;;;;36.80;22.87;;;2.90;99.90;;;;;;5054322;28;20202;-80
2023/03/13 03:29:29;;;;;;;37.53;24.10;;;3.00;99.90;;;;;;5055607;28;20218;-80
2023/03/13 03:31:55;;;;;;;38.67;23.10;;;3.10;99.90;;;;;;5055732;28;20449;-82
2023/03/13 03:34:21;;;;;;;39.25;24.63;;;3.00;99.90;;;;;;5054953;28;20177;-82
2023/03/13 03:36:46;;;;;;;40.57;24.20;;;2.90;99.90;;;;;;5054286;28;20186;-80
2023/03/13 03:39:12;;;;;;;35.53;23.30;;;2.80;99.90;;;;;;5070917;28;20174;-79
2023/03/13 03:41:38;;;;;;;37.50;23.07;;;2.80;99.90;;;;;;5070890;28;20635;-80
2023/03/13 03:44:04;;;;;;;34.10;18.93;;;2.80;99.90;;;;;;5055564;28;20920;-81
2023/03/13 03:46:30;;;;;;;40.30;24.20;;;2.80;99.90;;;;;;5055552;28;20189;-80
2023/03/13 03:48:56;;;;;;;40.83;24.43;;;2.80;99.90;;;;;;5055286;28;20190;-81
2023/03/13 03:51:22;;;;;;;37.20;23.10;;;2.90;99.90;;;;;;5053989;28;20541;-80
2023/03/13 03:53:48;;;;;;;37.50;22.43;;;2.80;99.90;;;;;;5055441;28;20682;-82
2023/03/13 03:56:14;;;;;;;36.40;20.30;;;2.80;99.90;;;;;;5053917;28;20421;-82
2023/03/13 03:58:39;;;;;;;31.35;21.35;;;2.80;99.90;;;;;;5070426;28;20789;-82
2023/03/13 04:01:05;;;;;;;38.07;22.40;;;2.80;99.90;;;;;;5070388;28;20192;-81
2023/03/13 04:03:31;;;;;;;35.37;23.50;;;2.90;99.90;;;;;;5070313;28;20194;-80
2023/03/13 04:05:56;;;;;;;33.63;22.03;;;3.00;99.90;;;;;;5070406;28;20178;-81
2023/03/13 04:08:23;;;;;;;35.97;21.47;;;3.00;99.90;;;;;;5054904;28;20910;-82
2023/03/13 04:10:48;;;;;;;39.80;23.52;;;2.90;99.90;;;;;;5070114;28;20216;-82
2023/03/13 04:13:14;;;;;;;40.10;23.80;;;3.00;99.90;;;;;;5070034;28;20198;-81
2023/03/13 04:15:40;;;;;;;33.33;22.57;;;3.10;99.90;;;;;;5054831;28;20197;-80
2023/03/13 04:18:06;;;;;;;36.33;25.10;;;3.20;99.90;;;;;;5054626;28;20197;-81
2023/03/13 04:20:32;;;;;;;38.28;24.15;;;3.30;99.90;;;;;;5054666;28;20411;-82
2023/03/13 04:22:58;;;;;;;34.40;20.52;;;3.30;99.90;;;;;;5070339;28;20596;-82
2023/03/13 04:25:24;;;;;;;34.07;21.60;;;3.30;99.90;;;;;;5070064;28;20263;-80
2023/03/13 04:27:49;;;;;;;32.90;21.20;;;3.20;99.90;;;;;;5054970;28;20263;-82
2023/03/13 04:30:15;;;;;;;36.00;22.60;;;3.30;99.90;;;;;;5069878;28;20445;-82
2023/03/13 04:32:41;;;;;;;40.13;25.55;;;3.30;99.90;;;;;;5054726;28;20267;-81
2023/03/13 04:35:07;;;;;;;44.90;27.80;;;3.40;99.90;;;;;;5054465;28;20659;-81
2023/03/13 04:37:33;;;;;;;39.78;23.45;;;3.40;99.90;;;;;;5054123;28;20225;-81
2023/03/13 04:39:59;;;;;;;38.33;23.97;;;3.20;99.90;;;;;;5054434;28;20662;-82
2023/03/13 04:42:25;;;;;;;49.47;28.50;;;3.20;99.90;;;;;;5069858;28;20452;-82
2023/03/13 04:44:50;;;;;;;38.30;24.10;;;3.20;99.90;;;;;;5053346;28;20173;-80
2023/03/13 04:47:17;;;;;;;36.43;24.10;;;3.20;99.90;;;;;;5069792;28;20504;-81
2023/03/13 04:49:43;;;;;;;40.53;25.08;;;3.10;99.90;;;;;;5054050;28;20218;-81
2023/03/13 04:52:09;;;;;;;37.23;22.80;;;3.20;99.90;;;;;;5069565;28;20224;-83
2023/03/13 04:54:35;;;;;;;33.90;22.85;;;3.20;99.90;;;;;;5052800;28;20213;-80
2023/03/13 04:57:00;;;;;;;42.57;23.93;;;3.10;99.90;;;;;;5054183;28;20194;-81
2023/03/13 04:59:26;;;;;;;34.40;22.67;;;3.10;99.90;;;;;;5054032;28;20626;-83
2023/03/13 05:01:52;;;;;;;37.77;22.23;;;3.10;99.90;;;;;;5054154;28;20611;-84
2023/03/13 05:04:17;;;;;;;35.33;20.80;;;3.10;99.90;;;;;;5069444;28;20227;-81
2023/03/13 05:06:43;;;;;;;34.53;22.63;;;3.10;99.90;;;;;;5069170;28;20177;-80
2023/03/13 05:09:09;;;;;;;36.93;21.10;;;3.20;99.90;;;;;;5053895;28;20240;-83
2023/03/13 05:11:35;;;;;;;35.83;23.40;;;3.30;99.90;;;;;;5069245;28;20688;-83
2023/03/13 05:14:01;;;;;;;33.80;21.80;;;3.40;99.90;;;;;;5053758;28;20226;-80
2023/03/13 05:16:26;;;;;;;33.13;19.73;;;3.50;99.90;;;;;;5053980;28;20415;-81
2023/03/13 05:18:52;;;;;;;29.87;20.40;;;3.50;99.90;;;;;;5068771;28;20268;-81
2023/03/13 05:21:18;;;;;;;37.67;24.37;;;3.60;99.90;;;;;;5068059;28;20178;-83
2023/03/13 05:23:43;;;;;;;32.50;20.37;;;3.70;99.90;;;;;;5061408;28;20194;-81
2023/03/13 05:26:09;;;;;;;31.93;20.70;;;4.00;99.90;;;;;;5055030;28;20252;-81
2023/03/13 05:28:35;;;;;;;29.30;20.60;;;4.20;99.90;;;;;;5063017;28;20253;-83
2023/03/13 05:31:03;;;;;;;32.40;20.43;;;4.10;99.90;;;;;;5054910;28;20205;-81
2023/03/13 05:33:29;;;;;;;35.72;23.95;;;4.10;99.90;;;;;;5052214;28;20228;-81
2023/03/13 05:35:55;;;;;;;31.53;21.07;;;4.00;99.90;;;;;;5053397;28;20604;-83
2023/03/13 05:38:20;;;;;;;28.57;18.40;;;3.90;99.90;;;;;;5050366;28;20251;-84
2023/03/13 05:40:46;;;;;;;30.47;18.40;;;3.90;99.90;;;;;;5051217;28;20178;-80
2023/03/13 05:43:12;;;;;;;29.03;19.80;;;4.00;99.90;;;;;;5049786;28;20201;-84
2023/03/13 05:45:37;;;;;;;36.40;19.80;;;4.10;99.90;;;;;;5049645;28;20643;-84
2023/03/13 05:48:03;;;;;;;25.40;18.10;;;4.10;99.90;;;;;;5050315;28;20554;-80
2023/03/13 05:50:29;;;;;;;32.60;21.33;;;4.20;99.90;;;;;;5068458;28;20601;-81
2023/03/13 05:52:54;;;;;;;29.47;21.77;;;4.30;99.90;;;;;;5059092;28;20449;-80
2023/03/13 05:55:20;;;;;;;278.07;107.40;;;4.20;99.90;;;;;;5053469;28;20174;-82
2023/03/13 05:57:47;;;;;;;50.30;29.80;;;4.00;99.90;;;;;;5066696;28;20282;-84
2023/03/13 06:00:14;;;;;;;27.20;18.05;;;3.80;99.90;;;;;;5074673;28;20608;-80
2023/03/13 06:02:41;;;;;;;32.22;21.98;;;3.80;99.90;;;;;;5077447;28;20287;-80
2023/03/13 06:05:07;;;;;;;30.23;19.40;;;3.70;99.90;;;;;;5071038;28;20585;-80
2023/03/13 06:07:33;;;;;;;22.92;17.23;;;3.80;99.90;;;;;;5070616;28;20698;-80
2023/03/13 06:09:58;;;;;;;28.87;19.00;;;4.00;99.90;;;;;;5065631;28;20206;-81
2023/03/13 06:12:24;;;;;;;129.43;70.43;;;4.30;99.90;;;;;;5055477;28;20251;-84
2023/03/13 06:14:50;;;;;;;30.20;19.20;;;4.30;99.90;;;;;;5055668;28;20234;-84
2023/03/13 06:17:15;;;;;;;23.70;18.10;;;4.20;99.90;;;;;;5056674;28;20201;-85
2023/03/13 06:19:41;;;;;;;25.03;17.23;;;4.30;99.90;;;;;;5062387;28;20228;-84
2023/03/13 06:22:07;;;;;;;23.43;15.90;;;4.40;99.90;;;;;;5065130;28;20443;-84
2023/03/13 06:24:32;;;;;;;23.33;17.13;;;4.40;99.90;;;;;;5073458;28;20246;-82
2023/03/13 06:26:58;;;;;;;24.57;14.80;;;4.50;99.90;;;;;;5068518;28;20202;-83
2023/03/13 06:29:24;;;;;;;28.50;17.97;;;4.50;99.90;;;;;;5088872;28;20259;-82
2023/03/13 06:31:50;;;;;;;23.90;14.53;;;4.50;99.90;;;;;;5072695;28;20658;-84
2023/03/13 06:34:16;;;;;;;23.10;15.20;;;4.60;99.90;;;;;;5063752;28;20236;-83
2023/03/13 06:36:41;;;;;;;18.57;12.87;;;4.70;99.90;;;;;;5053726;28;20479;-84
2023/03/13 06:39:08;;;;;;;19.40;13.33;;;4.70;99.90;;;;;;5056369;28;20909;-84
2023/03/13 06:41:34;;;;;;;20.55;14.90;;;4.70;99.90;;;;;;5070615;28;20816;-84
2023/03/13 06:44:00;;;;;;;22.17;15.82;;;4.80;99.90;;;;;;5070522;28;20585;-84
2023/03/13 06:46:26;;;;;;;20.63;14.00;;;5.00;99.90;;;;;;5072566;28;20173;-83
2023/03/13 06:48:51;;;;;;;19.20;13.13;;;5.20;99.90;;;;;;5070376;28;20235;-85
2023/03/13 06:51:20;;;;;;;17.30;11.30;;;5.40;99.90;;;;;;5070111;28;20193;-85
2023/03/13 06:53:47;;;;;;;21.83;15.95;;;5.50;99.90;;;;;;5069840;28;20280;-85
2023/03/13 06:56:13;;;;;;;31.17;22.38;;;5.60;99.90;;;;;;5066156;28;20579;-84
2023/03/13 06:58:39;;;;;;;21.92;13.60;;;5.70;99.90;;;;;;5062370;28;20197;-83
2023/03/13 07:01:10;;;;;;;17.10;12.25;;;5.80;99.90;;;;;;5067344;28;20204;-82
2023/03/13 07:03:36;;;;;;;20.85;13.65;;;6.00;99.90;;;;;;5062448;28;20202;-84
2023/03/13 07:06:04;;;;;;;19.13;12.98;;;6.10;99.90;;;;;;5057366;28;20685;-85
2023/03/13 07:08:30;;;;;;;20.23;13.68;;;;;;;;;;5065669;28;20205;-85
2023/03/13 07:11:00;;;;;;;18.77;13.80;;;;;;;;;;5063208;28;20623;-85
2023/03/13 07:13:27;;;;;;;17.52;14.20;;;;;;;;;;5059624;28;20201;-84
2023/03/13 07:15:53;;;;;;;22.15;14.80;;;6.30;99.90;;;;;;5058371;28;20169;-88
2023/03/13 07:18:19;;;;;;;17.20;12.70;;;6.60;99.90;;;;;;5059395;28;20197;-89
2023/03/13 07:20:55;;;;;;;17.48;12.23;;;6.70;99.90;;;;;;5058565;28;20642;-87
2023/03/13 07:23:22;;;;;;;13.25;9.77;;;6.80;99.90;;;;;;5059205;28;20198;-85
2023/03/13 07:26:02;;;;;;;14.02;8.77;;;6.80;99.90;;;;;;5059471;28;20169;-86
2023/03/13 07:28:30;;;;;;;17.88;13.43;;;6.80;99.90;;;;;;5068382;28;20193;-88
2023/03/13 07:31:04;;;;;;;22.15;14.25;;;6.80;99.90;;;;;;5063416;28;20244;-86
2023/03/13 07:33:30;;;;;;;21.55;14.00;;;7.00;99.90;;;;;;5069551;28;20205;-87
2023/03/13 07:35:55;;;;;;;15.30;12.20;;;7.10;99.90;;;;;;5057620;28;20687;-84
2023/03/13 07:38:21;;;;;;;16.23;11.67;;;7.30;99.90;;;;;;5061933;28;20204;-85
2023/03/13 07:40:51;;;;;;;18.13;13.70;;;7.40;99.90;;;;;;5069811;28;20216;-85
2023/03/13 07:43:18;;;;;;;17.45;13.20;;;7.50;99.90;;;;;;5073190;28;20197;-83
2023/03/13 07:45:52;;;;;;;17.50;11.18;;;7.60;99.90;;;;;;5066706;28;20212;-86
2023/03/13 07:48:19;;;;;;;14.15;11.05;;;7.70;99.90;;;;;;5053406;28;20193;-84
2023/03/13 07:50:45;;;;;;;13.35;7.90;;;7.80;99.90;;;;;;5061437;28;20686;-85
2023/03/13 07:53:11;;;;;;;16.38;9.93;;;;;;;;;;5053445;28;20293;-85
2023/03/13 07:55:37;;;;;;;13.75;9.18;;;7.90;99.90;;;;;;5066157;28;20260;-87
2023/03/13 07:58:03;;;;;;;12.20;8.93;;;;;;;;;;5066618;28;20700;-86
2023/03/13 08:00:29;;;;;;;15.70;9.70;;;;;;;;;;5072591;28;20256;-84
2023/03/13 08:02:55;;;;;;;13.10;10.00;;;;;;;;;;5072693;28;20452;-84
2023/03/13 08:05:21;;;;;;;10.75;9.65;;;;;;;;;;5065723;28;20592;-84
2023/03/13 08:07:47;;;;;;;11.20;7.57;;;;;;;;;;5058900;28;20204;-85
2023/03/13 08:10:13;;;;;;;21.60;13.88;;;;;;;;;;5062314;28;20552;-84
2023/03/13 08:12:39;;;;;;;11.75;10.18;;;;;;;;;;5061000;28;20302;-85
2023/03/13 08:15:05;;;;;;;13.13;9.40;;;;;;;;;;5065575;28;20245;-85
2023/03/13 08:17:31;;;;;;;12.63;8.52;;;;;;;;;;5060237;28;20189;-86
2023/03/13 08:19:57;;;;;;;12.52;9.77;;;;;;;;;;5061793;28;20687;-88
2023/03/13 08:22:23;;;;;;;11.07;9.40;;;;;;;;;;5062935;28;20292;-85
2023/03/13 08:24:50;;;;;;;11.40;9.87;;;;;;;;;;5061689;28;20272;-88
2023/03/13 08:27:16;;;;;;;11.90;9.35;;;;;;;;;;5058578;28;21025;-86
2023/03/13 08:29:42;;;;;;;12.15;9.25;;;;;;;;;;5060247;28;20263;-86
2023/03/13 08:32:08;;;;;;;11.13;9.10;;;;;;;;;;5063398;28;20304;-88
2023/03/13 08:34:35;;;;;;;12.70;9.37;;;;;;;;;;5062042;28;20422;-85
2023/03/13 08:37:01;;;;;;;9.57;8.57;;;;;;;;;;5066815;28;20454;-86
2023/03/13 08:39:27;;;;;;;11.70;8.80;;;;;;;;;;5066520;28;20407;-88
2023/03/13 08:41:54;;;;;;;14.03;10.50;;;;;;;;;;5068897;28;20530;-86
2023/03/13 08:44:20;;;;;;;11.00;7.87;;;;;;;;;;5063766;28;20492;-86
2023/03/13 08:46:48;;;;;;;12.00;9.03;;;;;;;;;;5065094;28;20432;-88
2023/03/13 08:49:16;;;;;;;10.73;8.50;;;;;;;;;;5058827;28;20418;-87
2023/03/13 08:51:42;;;;;;;7.87;7.07;;;;;;;;;;5066194;28;20418;-87
2023/03/13 08:54:08;;;;;;;9.20;7.90;;;;;;;;;;5051489;28;20942;-85
2023/03/13 08:56:34;;;;;;;10.20;8.20;;;;;;;;;;5050984;28;20823;-86
2023/03/13 08:59:01;;;;;;;9.77;8.77;;;;;;;;;;5050952;28;20479;-86
2023/03/13 09:01:29;;;;;;;11.37;9.30;;;;;;;;;;5055107;28;20497;-86
2023/03/13 09:03:55;;;;;;;12.47;10.07;;;;;;;;;;5057578;28;20426;-86
2023/03/13 09:06:21;;;;;;;9.90;8.70;;;;;;;;;;5054473;28;20563;-86
2023/03/13 09:08:47;;;;;;;11.23;9.50;;;;;;;;;;5056914;28;20423;-85
2023/03/13 09:11:17;;;;;;;10.63;8.97;;;;;;;;;;5055536;28;20513;-83
2023/03/13 09:13:45;;;;;;;10.17;8.43;;;;;;;;;;5061943;28;20477;-84
2023/03/13 09:16:13;;;;;;;10.80;8.53;;;;;;;;;;5062270;28;20510;-82
2023/03/13 09:18:40;;;;;;;10.77;8.70;;;;;;;;;;5063390;28;21183;-86
2023/03/13 09:21:08;;;;;;;9.03;8.13;;;8.00;99.90;;;;;;5056240;28;20426;-86
2023/03/13 09:23:34;;;;;;;9.77;8.13;;;;;;;;;;5043469;28;21293;-83
2023/03/13 09:26:01;;;;;;;14.30;9.23;;;15.90;76.80;;;;;;5041475;28;20997;-84
2023/03/13 09:28:27;;;;;;;9.53;8.63;;;16.10;74.20;;;;;;5046143;28;21515;-85
2023/03/13 09:30:53;;;;;;;9.00;6.37;;;16.30;74.80;;;;;;5062490;28;21060;-86
2023/03/13 09:33:20;;;;;;;11.03;9.37;;;;;;;;;;5060082;28;20430;-85
2023/03/13 09:35:49;;;;;;;9.10;7.90;;;;;;;;;;5057705;28;20501;-86
2023/03/13 09:38:16;;;;;;;10.20;8.20;;;;;;;;;;5067428;28;20457;-85
2023/03/13 09:40:44;;;;;;;10.37;8.93;;;;;;;;;;5065908;28;20619;-83
2023/03/13 09:43:29;;;;;;;9.33;7.90;;;;;;;;;;5065201;28;20874;-86
2023/03/13 09:45:58;;;;;;;10.37;8.70;;;;;;;;;;5060128;28;20421;-86
2023/03/13 09:48:30;;;;;;;7.33;5.87;;;;;;;;;;5066914;28;20442;-84
2023/03/13 09:51:01;;;;;;;9.50;7.03;;;;;;;;;;5065470;28;20552;-85
2023/03/13 09:53:33;;;;;;;9.03;7.50;;;;;;;;;;5064632;28;20524;-84
2023/03/13 09:55:59;;;;;;;8.73;7.80;;;;;;;;;;5069078;28;20425;-86
2023/03/13 09:58:27;;;;;;;7.40;6.10;;;;;;;;;;5061011;28;20972;-87
2023/03/13 10:00:56;;;;;;;9.20;7.60;;;;;;;;;;5064369;28;20418;-85
2023/03/13 10:03:28;;;;;;;9.03;7.20;;;;;;;;;;5061561;28;21001;-85
2023/03/13 10:06:01;;;;;;;10.33;7.27;;;16.00;75.00;;;;;;5065414;28;20418;-86
2023/03/13 10:08:32;;;;;;;11.33;7.50;;;15.10;73.30;;;;;;5065760;28;20997;-89
2023/03/13 10:11:16;;;;;;;7.53;6.73;;;15.40;71.90;;;;;;5053432;28;20496;-83
2023/03/13 10:13:42;;;;;;;9.00;7.63;;;15.30;70.10;;;;;;5060924;28;20486;-83
2023/03/13 10:16:43;;;;;;;11.40;8.50;;;15.10;71.10;;;;;;5061174;28;21161;-84
2023/03/13 10:19:17;;;;;;;8.07;5.00;;;15.00;72.50;;;;;;5041774;28;20189;-84
2023/03/13 10:21:46;;;;;;;8.83;6.37;;;14.90;71.90;;;;;;5065699;28;20434;-83
2023/03/13 10:24:30;;;;;;;10.37;7.77;;;14.50;70.40;;;;;;5056897;28;20437;-83
2023/03/13 10:26:57;;;;;;;9.30;6.77;;;14.00;72.10;;;;;;5059750;28;20461;-83
2023/03/13 10:29:25;;;;;;;8.00;6.17;;;13.90;70.90;;;;;;5064283;28;20470;-86
2023/03/13 10:32:00;;;;;;;9.70;6.90;;;13.50;70.60;;;;;;5062196;28;20861;-86
2023/03/13 10:34:28;;;;;;;11.37;7.90;;;13.40;71.40;;;;;;5063812;28;20976;-86
2023/03/13 10:36:59;;;;;;;16.03;8.83;;;13.30;72.50;;;;;;5062926;28;20465;-85
2023/03/13 10:39:27;;;;;;;37.03;19.13;;;13.30;71.80;;;;;;5052527;28;20426;-87
2023/03/13 10:42:28;;;;;;;23.67;15.00;;;13.30;72.80;;;;;;5059477;28;21027;-85
2023/03/13 10:45:03;;;;;;;24.17;14.67;;;13.30;72.00;;;;;;5068557;28;20806;-91
2023/03/13 10:47:33;;;;;;;13.60;11.00;;;13.30;72.60;;;;;;5085391;28;21054;-87
2023/03/13 10:49:59;;;;;;;10.40;8.10;;;13.30;73.80;;;;;;5065500;28;20465;-85
2023/03/13 10:52:46;;;;;;;8.33;6.97;;;13.50;72.30;;;;;;5075534;28;20442;-86
2023/03/13 10:55:20;;;;;;;9.50;7.40;;;13.60;72.00;;;;;;5062544;28;20177;-85
2023/03/13 10:58:05;;;;;;;9.20;5.10;;;13.60;70.50;;;;;;5064556;28;20445;-83
2023/03/13 11:00:37;;;;;;;8.23;6.90;;;13.60;72.80;;;;;;5064913;28;20529;-86
2023/03/13 11:03:30;;;;;;;10.60;8.13;;;13.80;70.30;;;;;;5061806;28;20457;-86
2023/03/13 11:05:59;;;;;;;8.93;8.00;;;13.80;70.30;;;;;;5057156;28;20465;-84
2023/03/13 11:08:32;;;;;;;24.93;13.27;;;13.90;71.40;;;;;;5064431;28;20472;-83
2023/03/13 11:11:01;;;;;;;10.40;7.90;;;13.90;70.90;;;;;;5063259;28;20470;-86
2023/03/13 11:13:26;;;;;;;10.37;7.53;;;13.90;71.00;;;;;;5069070;28;20454;-84
2023/03/13 11:15:58;;;;;;;11.67;7.43;;;14.00;70.70;;;;;;5070954;28;20453;-84
2023/03/13 11:18:31;;;;;;;8.57;7.63;;;14.10;70.90;;;;;;5066129;28;20248;-83
2023/03/13 11:20:58;;;;;;;12.17;10.20;;;14.20;69.90;;;;;;5082860;28;20429;-83
2023/03/13 11:23:44;;;;;;;13.10;9.73;;;14.30;71.10;;;;;;5065820;28;20406;-84
2023/03/13 11:26:21;;;;;;;14.13;10.70;;;14.40;71.60;;;;;;5066730;28;20185;-85
2023/03/13 11:29:05;;;;;;;14.97;12.60;;;14.10;71.80;;;;;;5065383;28;20458;-89
2023/03/13 11:31:43;;;;;;;13.00;10.77;;;14.00;71.60;;;;;;5063978;28;20441;-87
2023/03/13 11:34:15;;;;;;;13.63;9.87;;;14.20;73.30;;;;;;5075468;28;20425;-87
2023/03/13 11:37:07;;;;;;;9.80;8.80;;;14.30;74.00;;;;;;5082903;28;20445;-85
2023/03/13 11:39:45;;;;;;;14.90;10.50;;;14.30;74.40;;;;;;5064458;28;20429;-84
2023/03/13 11:42:35;;;;;;;13.60;10.63;;;14.30;74.30;;;;;;5065884;28;20454;-85
2023/03/13 11:45:07;;;;;;;13.77;11.40;;;14.20;74.60;;;;;;5076598;28;20472;-89
2023/03/13 11:47:55;;;;;;;12.40;10.63;;;14.30;76.50;;;;;;5063792;28;20847;-86
2023/03/13 11:50:27;;;;;;;16.37;11.63;;;14.50;77.40;;;;;;5062230;28;20502;-84
2023/03/13 11:53:08;;;;;;;13.33;11.00;;;14.60;77.50;;;;;;5064969;28;20458;-90
2023/03/13 11:55:42;;;;;;;12.90;10.03;;;14.70;78.80;;;;;;5057395;28;20433;-83
2023/03/13 11:58:14;;;;;;;11.63;10.17;;;14.80;78.20;;;;;;5056810;28;20533;-86
2023/03/13 12:00:42;;;;;;;10.03;8.83;;;14.80;77.80;;;;;;5058130;28;20660;-84
2023/03/13 12:03:43;;;;;;;12.90;11.20;;;14.70;78.40;;;;;;5054751;28;20462;-86
2023/03/13 12:06:33;;;;;;;13.83;11.00;;;14.80;77.90;;;;;;5059251;28;20973;-85
2023/03/13 12:09:03;;;;;;;14.67;11.27;;;;;;;;;;5056041;28;20423;-86
2023/03/13 12:11:49;;;;;;;14.40;12.00;;;;;;;;;;5054455;28;21299;-84
2023/03/13 12:14:18;;;;;;;12.77;11.47;;;;;;;;;;5062513;28;20496;-88
2023/03/13 12:16:47;;;;;;;12.60;10.00;;;;;;;;;;5060060;28;20422;-87
2023/03/13 12:19:17;;;;;;;11.80;9.27;;;;;;;;;;5075811;28;20518;-85
2023/03/13 12:21:56;;;;;;;12.90;11.63;;;;;;;;;;5059088;28;21142;-85
2023/03/13 12:24:29;;;;;;;11.73;9.07;;;;;;;;;;5062564;28;21021;-86
2023/03/13 12:26:58;;;;;;;15.60;9.30;;;;;;;;;;5064175;28;20450;-86
2023/03/13 12:29:37;;;;;;;11.30;9.53;;;;;;;;;;5059186;28;20418;-87
2023/03/13 12:32:08;;;;;;;13.27;11.93;;;;;;;;;;5062176;28;20445;-87
2023/03/13 12:34:51;;;;;;;14.03;10.97;;;;;;;;;;5065898;28;20503;-86
2023/03/13 12:37:36;;;;;;;13.30;11.90;;;;;;;;;;5056375;28;20676;-87
2023/03/13 12:40:24;;;;;;;13.00;9.87;;;;;;;;;;5058799;28;20975;-88
2023/03/13 12:43:08;;;;;;;12.20;10.07;;;;;;;;;;5057745;28;20985;-89
2023/03/13 12:45:37;;;;;;;14.23;10.83;;;;;;;;;;5057565;28;20498;-86
2023/03/13 12:48:19;;;;;;;11.57;9.27;;;14.80;78.30;;;;;;5058358;28;20434;-86
2023/03/13 12:51:04;;;;;;;12.40;8.90;;;;;;;;;;5059016;28;20853;-86
2023/03/13 12:53:49;;;;;;;17.40;12.23;;;;;;;;;;5066138;28;20861;-85
2023/03/13 12:56:15;;;;;;;11.00;9.53;;;;;;;;;;5075347;28;20518;-87
2023/03/13 12:58:41;;;;;;;12.43;10.97;;;;;;;;;;5051051;28;20492;-87
2023/03/13 13:01:07;;;;;;;11.43;9.93;;;;;;;;;;5056319;28;20853;-86
2023/03/13 13:03:38;;;;;;;10.80;9.53;;;;;;;;;;5056138;28;20534;-88
2023/03/13 13:06:06;;;;;;;11.67;10.13;;;;;;;;;;5067423;28;21061;-87
2023/03/13 13:08:40;;;;;;;11.37;10.17;;;;;;;;;;5063612;28;20688;-87
2023/03/13 13:11:24;;;;;;;13.30;10.57;;;;;;;;;;5056885;28;20889;-86